sensor_id;sensor_type;location;lat;lon;timestamp;pressure;altitude;pressure_sealevel;temperature;humidity
70338;BME280;57757;53.198;19.646;2023-04-23T00:00:57;99862.52;;;10.54;33.08
70338;BME280;57757;53.198;19.646;2023-04-23T00:03:36;99862.55;;;10.54;33.21
70338;BME280;57757;53.198;19.646;2023-04-23T00:06:07;99862.90;;;10.53;33.31
70338;BME280;57757;53.198;19.646;2023-04-23T00:08:38;99862.92;;;10.53;33.39
70338;BME280;57757;53.198;19.646;2023-04-23T00:11:07;99858.23;;;10.53;33.35
70338;BME280;57757;53.198;19.646;2023-04-23T00:13:36;99855.47;;;10.52;33.19
70338;BME280;57757;53.198;19.646;2023-04-23T00:16:04;99855.13;;;10.52;33.39
70338;BME280;57757;53.198;19.646;2023-04-23T00:18:32;99854.77;;;10.52;33.49
70338;BME280;57757;53.198;19.646;2023-04-23T00:21:00;99853.58;;;10.51;33.54
70338;BME280;57757;53.198;19.646;2023-04-23T00:23:28;99850.62;;;10.51;33.63
70338;BME280;57757;53.198;19.646;2023-04-23T00:25:55;99850.97;;;10.51;33.64
70338;BME280;57757;53.198;19.646;2023-04-23T00:28:23;99850.83;;;10.50;33.64
70338;BME280;57757;53.198;19.646;2023-04-23T00:30:51;99849.95;;;10.50;33.77
70338;BME280;57757;53.198;19.646;2023-04-23T00:33:18;99851.34;;;10.50;33.73
70338;BME280;57757;53.198;19.646;2023-04-23T00:35:46;99848.42;;;10.50;33.83
70338;BME280;57757;53.198;19.646;2023-04-23T00:38:14;99850.17;;;10.50;33.93
70338;BME280;57757;53.198;19.646;2023-04-23T00:40:42;99844.79;;;10.49;34.00
70338;BME280;57757;53.198;19.646;2023-04-23T00:43:10;99847.05;;;10.49;33.96
70338;BME280;57757;53.198;19.646;2023-04-23T00:45:38;99845.00;;;10.47;34.11
70338;BME280;57757;53.198;19.646;2023-04-23T00:48:06;99844.02;;;10.46;34.09
70338;BME280;57757;53.198;19.646;2023-04-23T00:50:33;99840.56;;;10.45;34.19
70338;BME280;57757;53.198;19.646;2023-04-23T00:53:01;99836.95;;;10.43;34.24
70338;BME280;57757;53.198;19.646;2023-04-23T00:55:29;99836.08;;;10.43;34.32
70338;BME280;57757;53.198;19.646;2023-04-23T00:57:57;99836.95;;;10.43;34.32
70338;BME280;57757;53.198;19.646;2023-04-23T01:00:25;99835.41;;;10.42;34.42
70338;BME280;57757;53.198;19.646;2023-04-23T01:02:53;99839.08;;;10.42;34.36
70338;BME280;57757;53.198;19.646;2023-04-23T01:05:22;99838.43;;;10.40;34.42
70338;BME280;57757;53.198;19.646;2023-04-23T01:07:50;99838.79;;;10.40;34.54
70338;BME280;57757;53.198;19.646;2023-04-23T01:10:18;99837.24;;;10.39;34.64
70338;BME280;57757;53.198;19.646;2023-04-23T01:12:47;99834.17;;;10.37;34.63
70338;BME280;57757;53.198;19.646;2023-04-23T01:15:15;99836.27;;;10.36;34.70
70338;BME280;57757;53.198;19.646;2023-04-23T01:17:44;99834.92;;;10.35;34.71
70338;BME280;57757;53.198;19.646;2023-04-23T01:20:12;99834.59;;;10.35;34.75
70338;BME280;57757;53.198;19.646;2023-04-23T01:22:39;99833.61;;;10.32;34.89
70338;BME280;57757;53.198;19.646;2023-04-23T01:25:08;99832.81;;;10.30;34.89
70338;BME280;57757;53.198;19.646;2023-04-23T01:27:37;99831.26;;;10.30;34.94
70338;BME280;57757;53.198;19.646;2023-04-23T01:30:06;99828.30;;;10.30;34.97
70338;BME280;57757;53.198;19.646;2023-04-23T01:32:36;99826.24;;;10.28;35.13
70338;BME280;57757;53.198;19.646;2023-04-23T01:35:04;99824.90;;;10.27;35.09
70338;BME280;57757;53.198;19.646;2023-04-23T01:37:35;99823.88;;;10.27;35.13
70338;BME280;57757;53.198;19.646;2023-04-23T01:40:05;99819.71;;;10.27;35.33
70338;BME280;57757;53.198;19.646;2023-04-23T01:42:35;99823.03;;;10.25;35.26
70338;BME280;57757;53.198;19.646;2023-04-23T01:45:03;99822.52;;;10.25;35.46
70338;BME280;57757;53.198;19.646;2023-04-23T01:47:32;99821.55;;;10.23;35.36
70338;BME280;57757;53.198;19.646;2023-04-23T01:50:00;99818.83;;;10.20;35.28
70338;BME280;57757;53.198;19.646;2023-04-23T01:52:28;99818.98;;;10.21;35.51
70338;BME280;57757;53.198;19.646;2023-04-23T01:54:56;99818.64;;;10.21;35.44
70338;BME280;57757;53.198;19.646;2023-04-23T01:57:24;99816.91;;;10.20;35.51
70338;BME280;57757;53.198;19.646;2023-04-23T02:00:05;99815.19;;;10.20;35.52
70338;BME280;57757;53.198;19.646;2023-04-23T02:02:42;99810.34;;;10.19;35.68
70338;BME280;57757;53.198;19.646;2023-04-23T02:05:13;99811.39;;;10.19;35.62
70338;BME280;57757;53.198;19.646;2023-04-23T02:07:41;99809.15;;;10.19;35.70
70338;BME280;57757;53.198;19.646;2023-04-23T02:10:10;99808.45;;;10.19;35.72
70338;BME280;57757;53.198;19.646;2023-04-23T02:12:39;99806.20;;;10.19;35.74
70338;BME280;57757;53.198;19.646;2023-04-23T02:15:09;99804.63;;;10.19;35.70
70338;BME280;57757;53.198;19.646;2023-04-23T02:17:37;99804.66;;;10.18;35.75
70338;BME280;57757;53.198;19.646;2023-04-23T02:20:08;99806.59;;;10.17;35.72
70338;BME280;57757;53.198;19.646;2023-04-23T02:22:40;99805.27;;;10.15;35.90
70338;BME280;57757;53.198;19.646;2023-04-23T02:25:09;99803.87;;;10.15;35.80
70338;BME280;57757;53.198;19.646;2023-04-23T02:27:37;99799.36;;;10.15;35.79
70338;BME280;57757;53.198;19.646;2023-04-23T02:30:05;99798.31;;;10.14;36.10
70338;BME280;57757;53.198;19.646;2023-04-23T02:32:35;99800.05;;;10.15;36.06
70338;BME280;57757;53.198;19.646;2023-04-23T02:35:04;99792.23;;;10.14;36.04
70338;BME280;57757;53.198;19.646;2023-04-23T02:37:33;99790.48;;;10.13;36.07
70338;BME280;57757;53.198;19.646;2023-04-23T02:40:02;99793.84;;;10.12;36.13
70338;BME280;57757;53.198;19.646;2023-04-23T02:42:33;99793.02;;;10.10;36.14
70338;BME280;57757;53.198;19.646;2023-04-23T02:45:00;99789.39;;;10.09;36.23
70338;BME280;57757;53.198;19.646;2023-04-23T02:47:28;99789.95;;;10.08;36.32
70338;BME280;57757;53.198;19.646;2023-04-23T02:49:57;99788.95;;;10.06;36.38
70338;BME280;57757;53.198;19.646;2023-04-23T02:52:25;99792.42;;;10.06;36.40
70338;BME280;57757;53.198;19.646;2023-04-23T02:54:53;99788.10;;;10.05;36.46
70338;BME280;57757;53.198;19.646;2023-04-23T02:57:20;99786.39;;;10.04;36.39
70338;BME280;57757;53.198;19.646;2023-04-23T02:59:48;99789.86;;;10.04;36.47
70338;BME280;57757;53.198;19.646;2023-04-23T03:02:16;99786.42;;;10.04;36.47
70338;BME280;57757;53.198;19.646;2023-04-23T03:04:44;99782.45;;;10.03;36.57
70338;BME280;57757;53.198;19.646;2023-04-23T03:07:12;99781.45;;;10.01;36.69
70338;BME280;57757;53.198;19.646;2023-04-23T03:09:40;99781.30;;;10.00;36.68
70338;BME280;57757;53.198;19.646;2023-04-23T03:12:08;99775.11;;;9.98;36.83
70338;BME280;57757;53.198;19.646;2023-04-23T03:14:36;99775.48;;;9.97;36.82
70338;BME280;57757;53.198;19.646;2023-04-23T03:17:04;99772.63;;;9.93;36.78
70338;BME280;57757;53.198;19.646;2023-04-23T03:19:31;99770.60;;;9.91;36.88
70338;BME280;57757;53.198;19.646;2023-04-23T03:21:59;99770.45;;;9.90;36.89
70338;BME280;57757;53.198;19.646;2023-04-23T03:24:32;99765.43;;;9.89;36.98
70338;BME280;57757;53.198;19.646;2023-04-23T03:26:59;99767.52;;;9.89;37.02
70338;BME280;57757;53.198;19.646;2023-04-23T03:29:28;99766.00;;;9.88;36.99
70338;BME280;57757;53.198;19.646;2023-04-23T03:31:55;99764.91;;;9.89;37.12
70338;BME280;57757;53.198;19.646;2023-04-23T03:34:23;99767.67;;;9.90;37.08
70338;BME280;57757;53.198;19.646;2023-04-23T03:36:51;99767.83;;;9.91;37.29
70338;BME280;57757;53.198;19.646;2023-04-23T03:39:19;99768.66;;;9.93;37.26
70338;BME280;57757;53.198;19.646;2023-04-23T03:41:46;99766.39;;;9.93;37.32
70338;BME280;57757;53.198;19.646;2023-04-23T03:44:14;99764.28;;;9.93;37.29
70338;BME280;57757;53.198;19.646;2023-04-23T03:46:41;99761.13;;;9.95;37.25
70338;BME280;57757;53.198;19.646;2023-04-23T03:49:09;99767.33;;;9.97;37.37
70338;BME280;57757;53.198;19.646;2023-04-23T03:51:38;99763.12;;;9.98;37.40
70338;BME280;57757;53.198;19.646;2023-04-23T03:54:07;99765.84;;;10.00;37.47
70338;BME280;57757;53.198;19.646;2023-04-23T03:56:35;99765.45;;;10.01;37.48
70338;BME280;57757;53.198;19.646;2023-04-23T03:59:03;99769.23;;;10.03;37.48
70338;BME280;57757;53.198;19.646;2023-04-23T04:01:30;99768.84;;;10.04;37.58
70338;BME280;57757;53.198;19.646;2023-04-23T04:03:59;99770.36;;;10.06;37.71
70338;BME280;57757;53.198;19.646;2023-04-23T04:06:28;99769.06;;;10.09;37.60
70338;BME280;57757;53.198;19.646;2023-04-23T04:08:55;99771.48;;;10.09;37.60
70338;BME280;57757;53.198;19.646;2023-04-23T04:11:23;99770.73;;;10.12;37.76
70338;BME280;57757;53.198;19.646;2023-04-23T04:13:53;99770.33;;;10.15;37.85
70338;BME280;57757;53.198;19.646;2023-04-23T04:16:21;99770.20;;;10.19;37.83
70338;BME280;57757;53.198;19.646;2023-04-23T04:18:49;99765.30;;;10.21;37.83
70338;BME280;57757;53.198;19.646;2023-04-23T04:21:17;99765.87;;;10.25;37.92
70338;BME280;57757;53.198;19.646;2023-04-23T04:23:45;99764.01;;;10.29;37.90
70338;BME280;57757;53.198;19.646;2023-04-23T04:26:13;99763.20;;;10.33;37.97
70338;BME280;57757;53.198;19.646;2023-04-23T04:28:43;99757.98;;;10.39;37.98
70338;BME280;57757;53.198;19.646;2023-04-23T04:31:13;99756.98;;;10.44;38.08
70338;BME280;57757;53.198;19.646;2023-04-23T04:33:42;99759.43;;;10.48;38.05
70338;BME280;57757;53.198;19.646;2023-04-23T04:36:13;99757.89;;;10.53;38.04
70338;BME280;57757;53.198;19.646;2023-04-23T04:38:40;99757.36;;;10.60;37.99
70338;BME280;57757;53.198;19.646;2023-04-23T04:41:08;99758.38;;;10.66;38.08
70338;BME280;57757;53.198;19.646;2023-04-23T04:43:36;99755.26;;;10.72;38.15
70338;BME280;57757;53.198;19.646;2023-04-23T04:46:04;99757.81;;;10.79;38.12
70338;BME280;57757;53.198;19.646;2023-04-23T04:48:34;99755.74;;;10.84;38.19
70338;BME280;57757;53.198;19.646;2023-04-23T04:51:02;99757.83;;;10.90;38.12
70338;BME280;57757;53.198;19.646;2023-04-23T04:53:31;99759.01;;;10.96;38.27
70338;BME280;57757;53.198;19.646;2023-04-23T04:55:59;99753.90;;;11.03;38.15
70338;BME280;57757;53.198;19.646;2023-04-23T04:58:27;99753.67;;;11.11;38.03
70338;BME280;57757;53.198;19.646;2023-04-23T05:00:55;99752.21;;;11.18;38.12
70338;BME280;57757;53.198;19.646;2023-04-23T05:03:22;99753.69;;;11.26;38.17
70338;BME280;57757;53.198;19.646;2023-04-23T05:05:51;99749.25;;;11.34;38.13
70338;BME280;57757;53.198;19.646;2023-04-23T05:08:23;99747.36;;;11.43;38.10
70338;BME280;57757;53.198;19.646;2023-04-23T05:10:51;99747.93;;;11.52;38.15
70338;BME280;57757;53.198;19.646;2023-04-23T05:13:21;99749.02;;;11.61;38.03
70338;BME280;57757;53.198;19.646;2023-04-23T05:15:48;99753.23;;;11.70;37.90
70338;BME280;57757;53.198;19.646;2023-04-23T05:18:17;99749.58;;;11.81;37.94
70338;BME280;57757;53.198;19.646;2023-04-23T05:20:45;99746.61;;;11.90;37.89
70338;BME280;57757;53.198;19.646;2023-04-23T05:23:13;99742.09;;;12.00;37.98
70338;BME280;57757;53.198;19.646;2023-04-23T05:25:41;99740.11;;;12.11;37.94
70338;BME280;57757;53.198;19.646;2023-04-23T05:28:10;99738.52;;;12.21;37.84
70338;BME280;57757;53.198;19.646;2023-04-23T05:30:40;99738.45;;;12.32;37.79
70338;BME280;57757;53.198;19.646;2023-04-23T05:33:17;99736.83;;;12.43;37.77
70338;BME280;57757;53.198;19.646;2023-04-23T05:35:45;99734.02;;;12.53;37.56
70338;BME280;57757;53.198;19.646;2023-04-23T05:38:13;99728.90;;;12.63;37.62
70338;BME280;57757;53.198;19.646;2023-04-23T05:40:40;99727.98;;;12.73;37.69
70338;BME280;57757;53.198;19.646;2023-04-23T05:43:08;99728.98;;;12.82;37.60
70338;BME280;57757;53.198;19.646;2023-04-23T05:45:37;99730.85;;;12.92;37.44
70338;BME280;57757;53.198;19.646;2023-04-23T05:48:05;99733.04;;;13.04;37.38
70338;BME280;57757;53.198;19.646;2023-04-23T05:50:33;99735.38;;;13.15;37.23
70338;BME280;57757;53.198;19.646;2023-04-23T05:53:01;99732.29;;;13.27;37.18
70338;BME280;57757;53.198;19.646;2023-04-23T05:55:30;99732.35;;;13.37;37.14
70338;BME280;57757;53.198;19.646;2023-04-23T05:57:58;99732.06;;;13.49;37.03
70338;BME280;57757;53.198;19.646;2023-04-23T06:00:26;99730.92;;;13.58;37.01
70338;BME280;57757;53.198;19.646;2023-04-23T06:02:54;99725.35;;;13.70;36.84
70338;BME280;57757;53.198;19.646;2023-04-23T06:05:22;99723.34;;;13.80;36.74
70338;BME280;57757;53.198;19.646;2023-04-23T06:07:51;99720.30;;;13.89;36.73
70338;BME280;57757;53.198;19.646;2023-04-23T06:10:19;99714.08;;;14.00;36.73
70338;BME280;57757;53.198;19.646;2023-04-23T06:12:46;99721.79;;;14.11;36.82
70338;BME280;57757;53.198;19.646;2023-04-23T06:15:14;99720.98;;;14.21;36.76
70338;BME280;57757;53.198;19.646;2023-04-23T06:17:41;99720.51;;;14.31;36.53
70338;BME280;57757;53.198;19.646;2023-04-23T06:20:09;99722.71;;;14.41;36.64
70338;BME280;57757;53.198;19.646;2023-04-23T06:22:38;99719.24;;;14.52;36.54
70338;BME280;57757;53.198;19.646;2023-04-23T06:25:06;99720.70;;;14.61;36.53
70338;BME280;57757;53.198;19.646;2023-04-23T06:27:33;99718.33;;;14.71;36.41
70338;BME280;57757;53.198;19.646;2023-04-23T06:30:01;99715.96;;;14.80;36.53
70338;BME280;57757;53.198;19.646;2023-04-23T06:32:29;99716.52;;;14.90;36.44
70338;BME280;57757;53.198;19.646;2023-04-23T06:34:57;99712.64;;;14.98;36.35
70338;BME280;57757;53.198;19.646;2023-04-23T06:37:29;99712.27;;;15.09;36.33
70338;BME280;57757;53.198;19.646;2023-04-23T06:39:58;99709.92;;;15.17;36.40
70338;BME280;57757;53.198;19.646;2023-04-23T06:42:26;99708.98;;;15.25;36.26
70338;BME280;57757;53.198;19.646;2023-04-23T06:44:55;99705.20;;;15.34;36.32
70338;BME280;57757;53.198;19.646;2023-04-23T06:47:23;99706.04;;;15.42;36.18
70338;BME280;57757;53.198;19.646;2023-04-23T06:49:50;99703.72;;;15.50;36.07
70338;BME280;57757;53.198;19.646;2023-04-23T06:52:18;99701.11;;;15.60;36.15
70338;BME280;57757;53.198;19.646;2023-04-23T06:54:46;99699.73;;;15.69;36.16
70338;BME280;57757;53.198;19.646;2023-04-23T06:57:14;99695.59;;;15.78;36.14
70338;BME280;57757;53.198;19.646;2023-04-23T06:59:43;99693.58;;;15.87;36.18
70338;BME280;57757;53.198;19.646;2023-04-23T07:02:11;99692.39;;;15.96;36.02
70338;BME280;57757;53.198;19.646;2023-04-23T07:04:39;99692.62;;;16.05;36.00
70338;BME280;57757;53.198;19.646;2023-04-23T07:07:08;99690.41;;;16.13;35.96
70338;BME280;57757;53.198;19.646;2023-04-23T07:09:35;99689.77;;;16.21;35.94
70338;BME280;57757;53.198;19.646;2023-04-23T07:12:03;99681.20;;;16.31;35.89
70338;BME280;57757;53.198;19.646;2023-04-23T07:14:31;99680.36;;;16.39;35.82
70338;BME280;57757;53.198;19.646;2023-04-23T07:16:59;99682.80;;;16.46;35.62
70338;BME280;57757;53.198;19.646;2023-04-23T07:19:27;99680.27;;;16.53;35.71
70338;BME280;57757;53.198;19.646;2023-04-23T07:21:54;99683.02;;;16.61;35.68
70338;BME280;57757;53.198;19.646;2023-04-23T07:24:22;99682.38;;;16.69;35.78
70338;BME280;57757;53.198;19.646;2023-04-23T07:26:52;99685.34;;;16.80;35.54
70338;BME280;57757;53.198;19.646;2023-04-23T07:29:20;99680.20;;;16.90;35.72
70338;BME280;57757;53.198;19.646;2023-04-23T07:31:48;99682.42;;;16.99;35.56
70338;BME280;57757;53.198;19.646;2023-04-23T07:34:16;99675.54;;;17.09;35.65
70338;BME280;57757;53.198;19.646;2023-04-23T07:36:43;99675.52;;;17.18;35.57
70338;BME280;57757;53.198;19.646;2023-04-23T07:39:11;99671.31;;;17.27;35.52
70338;BME280;57757;53.198;19.646;2023-04-23T07:41:39;99668.52;;;17.38;35.58
70338;BME280;57757;53.198;19.646;2023-04-23T07:44:07;99661.54;;;17.49;35.51
70338;BME280;57757;53.198;19.646;2023-04-23T07:46:34;99660.77;;;17.59;35.47
70338;BME280;57757;53.198;19.646;2023-04-23T07:49:02;99656.48;;;17.72;35.49
70338;BME280;57757;53.198;19.646;2023-04-23T07:51:31;99657.52;;;17.84;35.28
70338;BME280;57757;53.198;19.646;2023-04-23T07:53:59;99657.05;;;17.94;35.43
70338;BME280;57757;53.198;19.646;2023-04-23T07:56:28;99650.82;;;18.04;35.19
70338;BME280;57757;53.198;19.646;2023-04-23T07:58:58;99649.64;;;18.14;35.17
70338;BME280;57757;53.198;19.646;2023-04-23T08:01:27;99647.91;;;18.28;35.20
70338;BME280;57757;53.198;19.646;2023-04-23T08:03:55;99648.30;;;18.41;35.25
70338;BME280;57757;53.198;19.646;2023-04-23T08:06:26;99647.08;;;18.54;35.05
70338;BME280;57757;53.198;19.646;2023-04-23T08:08:56;99648.46;;;18.66;35.04
70338;BME280;57757;53.198;19.646;2023-04-23T08:11:24;99641.63;;;18.79;35.06
70338;BME280;57757;53.198;19.646;2023-04-23T08:13:52;99639.69;;;18.95;35.01
70338;BME280;57757;53.198;19.646;2023-04-23T08:16:20;99640.48;;;19.12;35.06
70338;BME280;57757;53.198;19.646;2023-04-23T08:18:48;99636.02;;;19.31;34.98
70338;BME280;57757;53.198;19.646;2023-04-23T08:21:32;99638.70;;;19.48;34.65
70338;BME280;57757;53.198;19.646;2023-04-23T08:24:00;99640.39;;;19.57;34.40
70338;BME280;57757;53.198;19.646;2023-04-23T08:26:30;99640.41;;;19.65;34.34
70338;BME280;57757;53.198;19.646;2023-04-23T08:28:58;99639.56;;;19.72;34.32
70338;BME280;57757;53.198;19.646;2023-04-23T08:31:27;99637.91;;;19.80;34.16
70338;BME280;57757;53.198;19.646;2023-04-23T08:33:56;99632.29;;;19.92;34.08
70338;BME280;57757;53.198;19.646;2023-04-23T08:36:24;99629.43;;;20.05;34.21
70338;BME280;57757;53.198;19.646;2023-04-23T08:38:54;99630.89;;;20.21;34.05
70338;BME280;57757;53.198;19.646;2023-04-23T08:41:22;99627.20;;;20.36;33.90
70338;BME280;57757;53.198;19.646;2023-04-23T08:46:42;99625.98;;;20.67;33.90
70338;BME280;57757;53.198;19.646;2023-04-23T08:49:14;99624.40;;;20.84;33.85
70338;BME280;57757;53.198;19.646;2023-04-23T08:51:51;99622.07;;;21.03;33.72
70338;BME280;57757;53.198;19.646;2023-04-23T08:54:25;99616.25;;;21.19;33.48
70338;BME280;57757;53.198;19.646;2023-04-23T08:56:55;99606.36;;;21.32;33.29
70338;BME280;57757;53.198;19.646;2023-04-23T08:59:29;99610.79;;;21.51;33.35
70338;BME280;57757;53.198;19.646;2023-04-23T09:01:58;99608.25;;;21.70;33.27
70338;BME280;57757;53.198;19.646;2023-04-23T09:04:28;99606.33;;;21.87;33.06
70338;BME280;57757;53.198;19.646;2023-04-23T09:06:58;99604.13;;;21.93;32.56
70338;BME280;57757;53.198;19.646;2023-04-23T09:09:28;99600.77;;;21.97;32.71
70338;BME280;57757;53.198;19.646;2023-04-23T09:11:56;99603.13;;;22.12;32.71
70338;BME280;57757;53.198;19.646;2023-04-23T09:14:24;99599.42;;;22.31;32.76
70338;BME280;57757;53.198;19.646;2023-04-23T09:16:52;99599.12;;;22.51;32.50
70338;BME280;57757;53.198;19.646;2023-04-23T09:19:24;99600.16;;;22.61;32.20
70338;BME280;57757;53.198;19.646;2023-04-23T09:21:57;99590.43;;;22.70;32.24
70338;BME280;57757;53.198;19.646;2023-04-23T09:24:25;99594.54;;;22.86;31.98
70338;BME280;57757;53.198;19.646;2023-04-23T09:26:53;99592.95;;;22.97;31.91
70338;BME280;57757;53.198;19.646;2023-04-23T09:29:23;99584.23;;;23.10;31.78
70338;BME280;57757;53.198;19.646;2023-04-23T09:32:05;99579.89;;;23.27;31.78
70338;BME280;57757;53.198;19.646;2023-04-23T09:34:35;99584.70;;;23.46;31.65
70338;BME280;57757;53.198;19.646;2023-04-23T09:37:06;99589.52;;;23.64;31.47
70338;BME280;57757;53.198;19.646;2023-04-23T09:39:34;99581.88;;;23.72;31.27
70338;BME280;57757;53.198;19.646;2023-04-23T09:42:04;99584.31;;;23.85;31.31
70338;BME280;57757;53.198;19.646;2023-04-23T09:44:32;99581.64;;;23.97;31.05
70338;BME280;57757;53.198;19.646;2023-04-23T09:47:06;99579.24;;;24.04;30.92
70338;BME280;57757;53.198;19.646;2023-04-23T09:49:52;99575.02;;;24.24;31.01
70338;BME280;57757;53.198;19.646;2023-04-23T09:52:20;99569.91;;;24.43;30.71
70338;BME280;57757;53.198;19.646;2023-04-23T09:54:51;99564.97;;;24.54;30.61
70338;BME280;57757;53.198;19.646;2023-04-23T09:57:24;99572.39;;;24.70;30.34
70338;BME280;57757;53.198;19.646;2023-04-23T09:59:52;99572.58;;;24.82;30.16
70338;BME280;57757;53.198;19.646;2023-04-23T10:02:37;99571.91;;;24.83;29.98
70338;BME280;57757;53.198;19.646;2023-04-23T10:05:22;99567.10;;;24.85;29.95
70338;BME280;57757;53.198;19.646;2023-04-23T10:08:00;99567.40;;;24.88;29.79
70338;BME280;57757;53.198;19.646;2023-04-23T10:10:30;99558.34;;;24.93;29.81
70338;BME280;57757;53.198;19.646;2023-04-23T10:12:59;99558.67;;;25.01;29.62
70338;BME280;57757;53.198;19.646;2023-04-23T10:15:27;99552.45;;;25.10;29.76
70338;BME280;57757;53.198;19.646;2023-04-23T10:17:56;99538.54;;;25.24;29.60
70338;BME280;57757;53.198;19.646;2023-04-23T10:20:26;99540.45;;;25.43;29.55
70338;BME280;57757;53.198;19.646;2023-04-23T10:22:55;99540.05;;;25.55;29.45
70338;BME280;57757;53.198;19.646;2023-04-23T10:25:24;99534.73;;;25.77;29.49
70338;BME280;57757;53.198;19.646;2023-04-23T10:27:53;99532.92;;;25.99;29.36
70338;BME280;57757;53.198;19.646;2023-04-23T10:30:25;99525.45;;;26.19;29.17
70338;BME280;57757;53.198;19.646;2023-04-23T10:32:54;99516.48;;;26.43;29.08
70338;BME280;57757;53.198;19.646;2023-04-23T10:35:22;99520.52;;;26.47;28.91
70338;BME280;57757;53.198;19.646;2023-04-23T10:37:49;99517.43;;;26.40;28.84
70338;BME280;57757;53.198;19.646;2023-04-23T10:40:24;99516.77;;;26.54;28.85
70338;BME280;57757;53.198;19.646;2023-04-23T10:42:55;99512.09;;;26.71;28.83
70338;BME280;57757;53.198;19.646;2023-04-23T10:45:23;99515.58;;;26.92;28.69
70338;BME280;57757;53.198;19.646;2023-04-23T10:47:53;99506.81;;;27.06;28.46
70338;BME280;57757;53.198;19.646;2023-04-23T10:50:28;99504.58;;;27.02;28.19
70338;BME280;57757;53.198;19.646;2023-04-23T10:52:57;99504.42;;;27.07;28.26
70338;BME280;57757;53.198;19.646;2023-04-23T10:55:30;99503.49;;;27.33;28.46
70338;BME280;57757;53.198;19.646;2023-04-23T10:58:06;99508.84;;;27.58;28.10
70338;BME280;57757;53.198;19.646;2023-04-23T11:03:29;99508.61;;;27.39;27.77
70338;BME280;57757;53.198;19.646;2023-04-23T11:06:03;99507.92;;;27.25;27.72
70338;BME280;57757;53.198;19.646;2023-04-23T11:08:34;99505.45;;;27.18;27.64
70338;BME280;57757;53.198;19.646;2023-04-23T11:11:06;99499.02;;;26.97;27.33
70338;BME280;57757;53.198;19.646;2023-04-23T11:13:34;99497.29;;;27.18;27.66
70338;BME280;57757;53.198;19.646;2023-04-23T11:16:21;99499.32;;;27.56;27.56
70338;BME280;57757;53.198;19.646;2023-04-23T11:19:09;99509.92;;;27.71;27.10
70338;BME280;57757;53.198;19.646;2023-04-23T11:22:04;99497.46;;;27.35;26.87
70338;BME280;57757;53.198;19.646;2023-04-23T11:24:37;99491.95;;;26.98;26.78
70338;BME280;57757;53.198;19.646;2023-04-23T11:27:12;99491.06;;;27.24;27.00
70338;BME280;57757;53.198;19.646;2023-04-23T11:29:43;99496.52;;;27.54;26.96
70338;BME280;57757;53.198;19.646;2023-04-23T11:32:15;99489.35;;;27.76;26.79
70338;BME280;57757;53.198;19.646;2023-04-23T11:34:45;99485.07;;;28.20;26.96
70338;BME280;57757;53.198;19.646;2023-04-23T11:37:14;99477.59;;;28.60;26.64
70338;BME280;57757;53.198;19.646;2023-04-23T11:39:50;99471.46;;;28.86;26.41
70338;BME280;57757;53.198;19.646;2023-04-23T11:42:22;99473.52;;;29.05;26.20
70338;BME280;57757;53.198;19.646;2023-04-23T11:44:49;99471.12;;;28.83;25.94
70338;BME280;57757;53.198;19.646;2023-04-23T11:47:17;99465.65;;;28.68;26.10
70338;BME280;57757;53.198;19.646;2023-04-23T11:49:47;99465.58;;;29.07;26.18
70338;BME280;57757;53.198;19.646;2023-04-23T11:52:16;99470.02;;;29.33;25.78
70338;BME280;57757;53.198;19.646;2023-04-23T11:54:44;99466.16;;;28.98;25.46
70338;BME280;57757;53.198;19.646;2023-04-23T11:57:11;99465.80;;;28.55;25.58
70338;BME280;57757;53.198;19.646;2023-04-23T11:59:41;99455.28;;;28.77;25.72
70338;BME280;57757;53.198;19.646;2023-04-23T12:02:09;99466.09;;;29.04;25.51
70338;BME280;57757;53.198;19.646;2023-04-23T12:04:37;99462.71;;;29.18;25.34
70338;BME280;57757;53.198;19.646;2023-04-23T12:07:07;99460.71;;;29.52;25.42
70338;BME280;57757;53.198;19.646;2023-04-23T12:09:57;99461.80;;;29.73;25.22
70338;BME280;57757;53.198;19.646;2023-04-23T12:12:33;99458.52;;;30.02;25.07
70338;BME280;57757;53.198;19.646;2023-04-23T12:15:06;99463.23;;;30.15;25.01
70338;BME280;57757;53.198;19.646;2023-04-23T12:17:34;99457.14;;;29.94;24.59
70338;BME280;57757;53.198;19.646;2023-04-23T12:20:04;99455.30;;;29.77;24.75
70338;BME280;57757;53.198;19.646;2023-04-23T12:22:33;99447.64;;;29.87;24.80
70338;BME280;57757;53.198;19.646;2023-04-23T12:25:04;99454.98;;;30.08;24.71
70338;BME280;57757;53.198;19.646;2023-04-23T12:27:40;99452.34;;;30.32;24.59
70338;BME280;57757;53.198;19.646;2023-04-23T12:30:10;99452.73;;;30.43;24.40
70338;BME280;57757;53.198;19.646;2023-04-23T12:32:40;99443.92;;;30.72;24.52
70338;BME280;57757;53.198;19.646;2023-04-23T12:35:08;99445.24;;;31.13;24.40
70338;BME280;57757;53.198;19.646;2023-04-23T12:37:37;99443.30;;;31.28;24.09
70338;BME280;57757;53.198;19.646;2023-04-23T12:40:05;99434.80;;;31.44;24.15
70338;BME280;57757;53.198;19.646;2023-04-23T12:42:35;99432.31;;;32.11;24.29
70338;BME280;57757;53.198;19.646;2023-04-23T12:45:07;99436.52;;;32.53;24.01
70338;BME280;57757;53.198;19.646;2023-04-23T12:47:36;99439.36;;;32.43;23.49
70338;BME280;57757;53.198;19.646;2023-04-23T12:50:04;99434.70;;;32.24;23.32
70338;BME280;57757;53.198;19.646;2023-04-23T12:52:34;99428.18;;;32.42;23.51
70338;BME280;57757;53.198;19.646;2023-04-23T12:55:04;99422.05;;;32.94;23.57
70338;BME280;57757;53.198;19.646;2023-04-23T12:57:32;99422.55;;;33.44;23.16
70338;BME280;57757;53.198;19.646;2023-04-23T13:00:00;99424.52;;;33.62;22.90
70338;BME280;57757;53.198;19.646;2023-04-23T13:02:29;99428.60;;;33.79;22.76
70338;BME280;57757;53.198;19.646;2023-04-23T13:04:58;99425.65;;;33.81;22.87
70338;BME280;57757;53.198;19.646;2023-04-23T13:07:34;99420.50;;;33.47;22.58